ベロオリゾンテ の空港の天気 - METARとTAF

タンクレド・ネヴェス国際空港 ( SBCF / CNF ) - ブラジル ミナスジェライス州ベロオリゾンテ
飛行場実況気象(Metar)
観測時間01/29 05:00 BRST (01/29 07:00 UTC)
風向・風速北 6m/s
視程10km以上
天気現象弱い雨
全天の4割程度の雲 雲底高度 1220m
全天の8割程度の雲 雲底高度 2440m
気温20℃
湿度83%
気圧1014hPa
METARSBCF 290700Z 01011KT 9999 -RA SCT040 BKN080 20/17 Q1014
過去の天気等 Google飛行場航空写真 Wunderground天気予報

過去48時間のMETAR

飛行場予報(TAF)
発表時間: 1/29 01:45 BRST (1/29 03:45 UTC)
予報対象時間: 29日4時 BRST ~ 30日4時 BRST
風向・風速北北東 1m/s
視程8000m
少しの雲 雲底高度 760m
29日10時 BRST ~ 29日12時 BRST に徐々に
風向・風速北 4m/s
全天の4割程度の雲 雲底高度 760m
29日12時 BRST ~ 29日14時 BRST に徐々に
風向・風速北西 4m/s
全天の8割程度の雲 雲底高度 760m
29日17時 BRST ~ 29日19時 BRST に徐々に
風向・風速北 3m/s
全天の4割程度の雲 雲底高度 760m
29日19時 BRST ~ 29日23時 BRST に一時的に
天気現象雷雨
全天の4割程度の雲 雲底高度 760m
少しの積乱雲 雲底高度 1370m
29日23時 BRST ~ 30日1時 BRST に徐々に
風向・風速北北東 2m/s
少しの雲 雲底高度 760m
TAF SBCF 290345Z 2906/3006 03002KT 8000 FEW025 TN19/2909Z TX29/2918Z
BECMG 2912/2914 35007KT SCT025
BECMG 2914/2916 31007KT BKN025
BECMG 2919/2921 35005KT SCT025
TEMPO 2921/3001 TSRA SCT025 FEW045CB
BECMG 3001/3003 02004KT FEW025 RMK PGM